Time;durP1;ratioP1;P1;durP2;ratioP2;P2;SDS_P1;SDS_P2;PMS_P1;PMS_P2;Temp;Humidity;BMP_temperature;BMP_pressure;BME280_temperature;BME280_humidity;BME280_pressure;Samples;Min_cycle;Max_cycle;Signal;HPM_P1;HPM_P2
2021/12/13 00:01:46;;;;;;;13.00;6.47;;;1.40;92.40;;;;;;4997419;28;20116;-65
2021/12/13 00:04:18;;;;;;;10.20;6.00;;;1.30;92.60;;;;;;4997212;28;20026;-66
2021/12/13 00:06:58;;;;;;;12.93;5.65;;;1.30;92.70;;;;;;4998406;28;20760;-65
2021/12/13 00:09:27;;;;;;;10.60;6.15;;;1.40;92.80;;;;;;4999260;28;20050;-65
2021/12/13 00:11:58;;;;;;;11.82;6.55;;;1.40;92.60;;;;;;4989867;28;20026;-65
2021/12/13 00:14:29;;;;;;;10.85;6.50;;;1.40;92.50;;;;;;5000279;28;20041;-65
2021/12/13 00:17:05;;;;;;;10.80;6.28;;;1.50;92.50;;;;;;4997542;28;20117;-65
2021/12/13 00:19:42;;;;;;;8.35;5.80;;;1.60;92.30;;;;;;5003184;28;20078;-66
2021/12/13 00:22:14;;;;;;;8.52;5.80;;;1.40;92.60;;;;;;4996713;28;20030;-65
2021/12/13 00:24:43;;;;;;;10.98;5.70;;;1.40;92.80;;;;;;5007119;28;21083;-66
2021/12/13 00:27:12;;;;;;;9.60;5.95;;;1.50;92.30;;;;;;5002938;28;20061;-66
2021/12/13 00:29:50;;;;;;;12.70;6.63;;;1.50;92.30;;;;;;5003421;28;20045;-65
2021/12/13 00:32:37;;;;;;;12.60;6.63;;;1.50;92.30;;;;;;5005263;28;20049;-65
2021/12/13 00:35:08;;;;;;;8.57;5.50;;;1.60;92.20;;;;;;5006107;28;20113;-65
2021/12/13 00:37:39;;;;;;;9.55;6.20;;;1.80;91.80;;;;;;4998014;28;20030;-65
2021/12/13 00:40:08;;;;;;;8.13;4.90;;;1.80;91.00;;;;;;5001616;28;20026;-65
2021/12/13 00:42:57;;;;;;;7.40;4.85;;;1.70;90.20;;;;;;4992577;28;20054;-65
2021/12/13 00:45:27;;;;;;;13.32;8.10;;;1.40;89.50;;;;;;5002357;28;20023;-65
2021/12/13 00:47:53;;;;;;;10.43;6.82;;;1.20;90.10;;;;;;4994549;28;20543;-65
2021/12/13 00:50:41;;;;;;;11.68;6.25;;;1.10;90.10;;;;;;4999183;28;20033;-65
2021/12/13 00:53:08;;;;;;;7.22;5.10;;;1.10;90.40;;;;;;4998892;28;20104;-65
2021/12/13 00:55:35;;;;;;;7.50;4.68;;;1.00;90.40;;;;;;5004051;28;20068;-65
2021/12/13 00:58:03;;;;;;;9.65;5.05;;;1.00;90.40;;;;;;4999648;28;20046;-65
2021/12/13 01:00:39;;;;;;;7.63;5.20;;;1.00;90.70;;;;;;4999013;28;20069;-65
2021/12/13 01:03:15;;;;;;;7.47;5.05;;;1.00;91.40;;;;;;4997454;28;20120;-66
2021/12/13 01:06:02;;;;;;;12.70;6.97;;;1.00;90.70;;;;;;4996838;28;20590;-66
2021/12/13 01:09:01;;;;;;;6.80;4.63;;;1.10;92.10;;;;;;4998962;28;20119;-65
2021/12/13 01:11:48;;;;;;;6.97;4.45;;;1.10;90.70;;;;;;5003539;28;20653;-66
2021/12/13 01:14:43;;;;;;;7.45;4.68;;;0.80;90.00;;;;;;5001386;28;20029;-65
2021/12/13 01:17:26;;;;;;;7.93;4.38;;;0.60;87.50;;;;;;4998157;28;20034;-65
2021/12/13 01:20:00;;;;;;;6.68;4.32;;;0.40;88.90;;;;;;5002425;28;20046;-65
2021/12/13 01:22:46;;;;;;;7.80;4.20;;;0.30;90.00;;;;;;5003604;28;20030;-65
2021/12/13 01:25:39;;;;;;;6.13;4.05;;;0.20;90.70;;;;;;5003833;28;20057;-65
2021/12/13 01:28:10;;;;;;;8.27;4.70;;;0.20;90.80;;;;;;4998310;28;20666;-66
2021/12/13 01:30:38;;;;;;;;;;;-0.10;91.80;;;;;;5000351;28;20029;-65
2021/12/13 01:33:08;;;;;;;10.20;4.68;;;-0.10;92.50;;;;;;4998011;28;19920;-65
2021/12/13 01:35:38;;;;;;;8.80;5.47;;;-0.20;92.30;;;;;;5000543;28;20030;-65
2021/12/13 01:38:17;;;;;;;10.70;6.32;;;-0.30;92.70;;;;;;5004209;28;20022;-65
2021/12/13 01:40:52;;;;;;;8.45;5.00;;;-0.50;93.20;;;;;;5000298;28;20066;-66
2021/12/13 01:43:22;;;;;;;10.02;5.47;;;-0.60;93.80;;;;;;4997328;28;20073;-65
2021/12/13 01:45:50;;;;;;;9.95;5.43;;;-0.80;94.40;;;;;;4997367;28;20042;-65
2021/12/13 01:48:21;;;;;;;8.85;5.38;;;-0.80;94.70;;;;;;5002306;28;20109;-66
2021/12/13 01:50:52;;;;;;;12.48;5.60;;;-0.60;94.50;;;;;;4998796;28;20030;-66
2021/12/13 01:53:29;;;;;;;12.05;5.40;;;-0.60;94.40;;;;;;4996437;28;20507;-65
2021/12/13 01:55:58;;;;;;;10.68;5.68;;;-0.50;94.30;;;;;;4998012;28;20026;-65
2021/12/13 02:01:12;;;;;;;10.30;5.50;;;-0.30;94.00;;;;;;4997557;28;20046;-66
2021/12/13 02:04:00;;;;;;;8.70;5.05;;;-0.10;93.80;;;;;;4999235;28;20124;-65
2021/12/13 02:06:46;;;;;;;10.73;6.20;;;0.10;93.50;;;;;;5000834;28;20049;-65
2021/12/13 02:09:14;;;;;;;9.70;5.60;;;0.20;93.60;;;;;;4999760;28;20474;-65
2021/12/13 02:11:42;;;;;;;8.98;5.70;;;0.40;93.80;;;;;;4997296;28;20093;-65
2021/12/13 02:14:14;;;;;;;10.70;6.40;;;0.40;93.60;;;;;;4995180;28;20033;-66
2021/12/13 02:19:52;;;;;;;10.02;6.22;;;0.50;93.30;;;;;;4999161;28;20117;-66
2021/12/13 02:22:37;;;;;;;8.18;5.88;;;0.60;93.30;;;;;;4999475;28;20037;-65
2021/12/13 02:25:37;;;;;;;12.93;5.90;;;0.60;93.40;;;;;;4998958;28;20500;-66
2021/12/13 02:28:14;;;;;;;11.20;5.90;;;0.60;92.90;;;;;;4997752;28;20038;-66
2021/12/13 02:30:42;;;;;;;9.85;5.72;;;0.70;92.70;;;;;;4997152;28;20022;-66
2021/12/13 02:33:12;;;;;;;9.70;5.63;;;0.70;91.90;;;;;;4998963;28;20408;-66
2021/12/13 02:35:41;;;;;;;8.32;6.10;;;0.60;91.70;;;;;;5003495;28;20058;-66
2021/12/13 02:38:10;;;;;;;9.80;5.95;;;0.60;91.30;;;;;;5005752;28;20080;-66
2021/12/13 02:40:36;;;;;;;8.25;4.10;;;0.50;91.60;;;;;;5003957;28;20085;-66
2021/12/13 02:43:05;;;;;;;8.85;5.50;;;0.40;90.40;;;;;;5002801;28;20448;-66
2021/12/13 02:45:44;;;;;;;11.68;6.22;;;0.30;90.90;;;;;;5002575;28;20449;-66
2021/12/13 02:48:22;;;;;;;9.30;4.85;;;0.30;91.60;;;;;;5001757;28;20145;-66
2021/12/13 02:50:56;;;;;;;8.10;4.82;;;0.20;90.60;;;;;;5003555;28;20060;-66
2021/12/13 02:53:34;;;;;;;8.35;5.03;;;0.10;90.70;;;;;;5002449;28;20087;-66
2021/12/13 02:56:03;;;;;;;8.02;5.22;;;0.00;91.40;;;;;;5001540;28;20699;-66
2021/12/13 02:58:30;;;;;;;7.32;4.53;;;0.00;91.80;;;;;;5002585;28;20030;-66
2021/12/13 03:01:12;;;;;;;10.40;5.55;;;0.00;91.70;;;;;;5002570;28;20094;-66
2021/12/13 03:03:42;;;;;;;6.82;4.20;;;-0.20;91.70;;;;;;5001190;28;20565;-66
2021/12/13 03:06:11;;;;;;;8.07;5.05;;;-0.30;91.60;;;;;;4998350;28;20034;-66
2021/12/13 03:09:05;;;;;;;8.23;4.50;;;-0.40;91.50;;;;;;4997719;28;20125;-66
2021/12/13 03:11:33;;;;;;;6.35;4.18;;;-0.30;92.40;;;;;;4998252;28;20053;-66
2021/12/13 03:14:12;;;;;;;6.50;4.35;;;-0.30;91.90;;;;;;4999862;28;20030;-66
2021/12/13 03:16:44;;;;;;;8.43;5.68;;;-0.30;91.80;;;;;;4999526;28;20048;-66
2021/12/13 03:19:41;;;;;;;9.23;5.80;;;-0.20;93.20;;;;;;4998640;28;20507;-66
2021/12/13 03:22:26;;;;;;;7.60;5.15;;;-0.20;92.40;;;;;;5003755;28;20042;-66
2021/12/13 03:25:28;;;;;;;11.02;5.43;;;-0.20;91.80;;;;;;4998027;28;20578;-65
2021/12/13 03:28:07;;;;;;;9.70;6.10;;;-0.30;91.50;;;;;;4997933;28;20099;-66
2021/12/13 03:30:43;;;;;;;8.73;5.32;;;-0.40;92.90;;;;;;4996567;28;20060;-66
2021/12/13 03:33:12;;;;;;;8.40;5.10;;;-0.50;91.90;;;;;;4996863;28;20034;-65
2021/12/13 03:35:53;;;;;;;7.78;4.38;;;-0.70;91.90;;;;;;4999387;28;20690;-65
2021/12/13 03:38:27;;;;;;;6.78;4.35;;;-0.80;92.10;;;;;;5000475;28;20030;-65
2021/12/13 03:40:56;;;;;;;7.68;3.80;;;-0.80;91.40;;;;;;4998638;28;20117;-66
2021/12/13 03:43:31;;;;;;;7.65;4.85;;;-0.80;91.00;;;;;;4994634;28;20133;-65
2021/12/13 03:46:02;;;;;;;8.57;5.25;;;-0.80;92.50;;;;;;4995623;28;20451;-66
2021/12/13 03:48:29;;;;;;;7.88;5.18;;;-0.90;93.00;;;;;;4999280;28;20037;-66
2021/12/13 03:51:03;;;;;;;7.05;4.22;;;-0.90;93.20;;;;;;4999377;28;20037;-66
2021/12/13 03:53:32;;;;;;;8.27;4.03;;;-0.90;91.80;;;;;;4995632;28;20497;-65
2021/12/13 03:56:04;;;;;;;7.45;4.13;;;-0.90;91.50;;;;;;4999713;28;20026;-66
2021/12/13 03:58:35;;;;;;;6.57;4.00;;;-1.00;91.30;;;;;;4996629;28;20026;-66
2021/12/13 04:01:06;;;;;;;5.93;4.15;;;-1.10;91.60;;;;;;4999189;28;20022;-66
2021/12/13 04:03:33;;;;;;;15.60;12.25;;;-1.00;91.40;;;;;;4994289;28;20037;-65
2021/12/13 04:05:59;;;;;;;7.10;4.43;;;-1.00;91.60;;;;;;4997676;28;20530;-65
2021/12/13 04:08:26;;;;;;;10.52;7.35;;;-1.10;91.90;;;;;;4995000;28;20393;-66
2021/12/13 04:11:08;;;;;;;6.63;4.32;;;-1.00;92.00;;;;;;4996605;28;20125;-66
2021/12/13 04:13:40;;;;;;;5.68;3.85;;;-1.00;91.90;;;;;;4993965;28;20091;-66
2021/12/13 04:16:15;;;;;;;;;;;-1.10;91.30;;;;;;5002696;28;20112;-66
2021/12/13 04:19:28;;;;;;;4.60;3.00;;;-1.20;90.80;;;;;;4993669;28;19967;-65
2021/12/13 04:21:45;;;;;;;5.82;3.67;;;-1.40;90.80;;;;;;4988050;28;20157;-65
2021/12/13 04:24:20;;;;;;;5.05;3.60;;;-1.40;91.10;;;;;;4998371;28;20156;-66
2021/12/13 04:26:51;;;;;;;6.95;4.32;;;-1.40;91.60;;;;;;4996344;28;20034;-66
2021/12/13 04:29:21;;;;;;;5.35;3.17;;;-1.40;91.40;;;;;;4995282;28;20042;-66
2021/12/13 04:31:48;;;;;;;5.47;2.90;;;-1.50;91.50;;;;;;4999221;28;20065;-66
2021/12/13 04:34:14;;;;;;;7.30;4.53;;;-1.50;91.80;;;;;;5002834;28;20031;-66
2021/12/13 04:36:45;;;;;;;4.97;2.90;;;-1.50;91.80;;;;;;5000547;28;20030;-65
2021/12/13 04:39:33;;;;;;;3.47;2.38;;;-1.50;91.90;;;;;;5001586;28;20464;-65
2021/12/13 04:42:06;;;;;;;4.93;2.40;;;-1.50;91.70;;;;;;4999192;28;20109;-65
2021/12/13 04:44:34;;;;;;;4.85;2.53;;;-1.50;91.60;;;;;;4999786;28;20038;-65
2021/12/13 04:47:07;;;;;;;5.68;2.90;;;-1.50;92.20;;;;;;5002320;28;20630;-65
2021/12/13 04:49:37;;;;;;;5.75;2.83;;;-1.50;92.60;;;;;;4999486;28;20038;-65
2021/12/13 04:52:11;;;;;;;4.38;2.00;;;-1.50;92.40;;;;;;4999826;28;20392;-65
2021/12/13 04:54:40;;;;;;;3.92;2.13;;;-1.40;91.80;;;;;;4998307;28;20045;-65
2021/12/13 04:57:06;;;;;;;4.10;2.35;;;-1.60;91.00;;;;;;5000877;28;20502;-64
2021/12/13 04:59:34;;;;;;;3.67;2.08;;;-1.70;90.70;;;;;;4997302;28;20160;-64
2021/12/13 05:02:07;;;;;;;4.45;2.58;;;-1.80;90.70;;;;;;4999912;28;20033;-65
2021/12/13 05:04:33;;;;;;;4.65;2.75;;;-1.80;91.40;;;;;;5005570;28;20040;-64
2021/12/13 05:07:04;;;;;;;4.28;3.08;;;-1.80;91.10;;;;;;5001941;28;20033;-65
2021/12/13 05:09:30;;;;;;;5.80;2.88;;;-1.80;91.70;;;;;;4998919;28;20029;-65
2021/12/13 05:12:03;;;;;;;4.38;2.80;;;-1.80;91.60;;;;;;5001639;28;20030;-65
2021/12/13 05:14:41;;;;;;;4.80;2.30;;;-1.80;91.50;;;;;;5003209;28;20068;-65
2021/12/13 05:17:34;;;;;;;4.05;2.50;;;-1.80;91.00;;;;;;5000156;28;20049;-65
2021/12/13 05:20:20;;;;;;;4.80;2.50;;;-1.90;90.90;;;;;;4997253;28;20049;-65
2021/12/13 05:22:59;;;;;;;3.38;1.98;;;-2.00;90.70;;;;;;5003071;28;20603;-65
2021/12/13 05:25:33;;;;;;;4.78;2.38;;;-2.10;91.20;;;;;;4999530;28;20564;-65
2021/12/13 05:28:13;;;;;;;3.83;2.65;;;-2.10;91.60;;;;;;4999915;28;20463;-65
2021/12/13 05:30:48;;;;;;;4.75;2.72;;;-2.10;91.90;;;;;;5001316;28;20077;-65
2021/12/13 05:33:17;;;;;;;5.47;3.40;;;-2.00;92.00;;;;;;4999277;28;20100;-65
2021/12/13 05:35:48;;;;;;;4.22;2.78;;;-2.00;92.30;;;;;;4999056;28;20029;-65
2021/12/13 05:38:25;;;;;;;2.47;1.45;;;-2.00;92.00;;;;;;4996238;28;20037;-65
2021/12/13 05:40:51;;;;;;;3.22;1.90;;;-2.10;90.90;;;;;;4999171;28;20081;-65
2021/12/13 05:43:20;;;;;;;2.78;1.75;;;-2.10;90.60;;;;;;5001219;28;20060;-65
2021/12/13 05:45:51;;;;;;;4.78;2.20;;;-2.30;90.40;;;;;;5002386;28;20129;-65
2021/12/13 05:48:24;;;;;;;4.35;2.30;;;-2.40;91.80;;;;;;4999046;28;20056;-65
2021/12/13 05:50:58;;;;;;;25.90;12.65;;;-2.50;92.00;;;;;;5000891;28;20053;-65
2021/12/13 05:53:29;;;;;;;16.55;8.63;;;-2.50;92.80;;;;;;4996830;28;20064;-65
2021/12/13 05:55:55;;;;;;;12.45;6.85;;;-2.50;92.20;;;;;;4998974;28;20079;-65
2021/12/13 05:58:30;;;;;;;22.83;11.95;;;-2.40;92.40;;;;;;4999250;28;20532;-65
2021/12/13 06:00:59;;;;;;;24.20;13.85;;;-2.30;92.60;;;;;;4998882;28;20037;-66
2021/12/13 06:03:35;;;;;;;31.83;17.75;;;-2.30;92.80;;;;;;5003608;28;20057;-65
2021/12/13 06:06:13;;;;;;;37.53;20.35;;;-2.20;92.50;;;;;;5003218;28;20153;-65
2021/12/13 06:08:44;;;;;;;31.17;17.60;;;-2.20;92.70;;;;;;4996841;28;20030;-65
2021/12/13 06:11:14;;;;;;;32.50;18.55;;;-2.00;93.40;;;;;;5002446;28;20052;-65
2021/12/13 06:13:43;;;;;;;27.65;14.38;;;-1.90;93.00;;;;;;4998572;28;20041;-65
2021/12/13 06:16:23;;;;;;;23.45;13.43;;;-1.90;93.30;;;;;;5000080;28;20057;-65
2021/12/13 06:18:58;;;;;;;23.05;13.85;;;-1.80;93.40;;;;;;5000295;28;20026;-66
2021/12/13 06:21:54;;;;;;;17.35;10.48;;;-1.80;93.20;;;;;;4999235;28;20060;-65
2021/12/13 06:24:34;;;;;;;29.30;14.27;;;-1.80;92.70;;;;;;4997590;28;20026;-65
2021/12/13 06:27:10;;;;;;;18.67;11.93;;;-1.70;93.20;;;;;;4995729;28;20484;-65
2021/12/13 06:29:53;;;;;;;20.58;12.38;;;-1.60;93.00;;;;;;4997881;28;20137;-66
2021/12/13 06:32:37;;;;;;;23.90;14.35;;;-1.60;92.70;;;;;;4997016;28;20109;-65
2021/12/13 06:35:27;;;;;;;19.67;10.82;;;-1.60;92.60;;;;;;4994592;28;20065;-65
2021/12/13 06:37:53;;;;;;;21.83;10.60;;;-1.60;91.90;;;;;;5000453;28;20034;-66
2021/12/13 06:40:27;;;;;;;14.30;8.73;;;-1.70;92.50;;;;;;5001665;28;20033;-65
2021/12/13 06:42:58;;;;;;;9.02;5.93;;;-1.70;91.60;;;;;;5000341;28;20046;-66
2021/12/13 06:45:34;;;;;;;8.07;3.67;;;-1.80;89.80;;;;;;4999886;28;20096;-65
2021/12/13 06:48:03;;;;;;;5.38;3.28;;;-2.20;88.40;;;;;;4997201;28;20547;-66
2021/12/13 06:50:33;;;;;;;5.85;3.55;;;-2.40;89.50;;;;;;5000075;28;20076;-65
2021/12/13 06:53:17;;;;;;;5.75;3.25;;;-2.50;90.10;;;;;;4999635;28;20048;-66
2021/12/13 06:55:45;;;;;;;8.55;5.68;;;-2.50;90.50;;;;;;4995937;28;20064;-65
2021/12/13 06:58:21;;;;;;;10.55;6.13;;;-2.50;91.20;;;;;;4995461;28;20022;-65
2021/12/13 07:00:49;;;;;;;15.75;7.20;;;-2.50;91.80;;;;;;4998947;28;20045;-65
2021/12/13 07:03:26;;;;;;;16.52;8.95;;;-2.40;91.90;;;;;;4996748;28;20113;-65
2021/12/13 07:05:57;;;;;;;18.20;9.73;;;-2.40;92.30;;;;;;4998309;28;20061;-66
2021/12/13 07:08:35;;;;;;;22.33;9.55;;;-2.30;92.50;;;;;;5002153;28;20551;-66
2021/12/13 07:11:11;;;;;;;21.65;11.73;;;-2.10;92.50;;;;;;4995335;28;20472;-65
2021/12/13 07:13:43;;;;;;;25.98;12.63;;;-2.00;92.60;;;;;;4996784;28;20034;-65
2021/12/13 07:16:13;;;;;;;13.70;8.07;;;-2.00;92.30;;;;;;4997936;28;20026;-66
2021/12/13 07:18:42;;;;;;;13.20;6.63;;;-1.90;92.00;;;;;;4998526;28;20038;-66
2021/12/13 07:21:13;;;;;;;13.73;7.22;;;-2.00;91.20;;;;;;5004282;28;20495;-66
2021/12/13 07:23:51;;;;;;;14.63;8.90;;;-2.00;90.80;;;;;;5003285;28;20037;-66
2021/12/13 07:26:52;;;;;;;15.88;10.30;;;-2.00;91.30;;;;;;5004108;28;20037;-66
2021/12/13 07:29:22;;;;;;;20.63;11.57;;;-1.90;91.60;;;;;;5000161;28;20068;-66
2021/12/13 07:32:19;;;;;;;19.40;11.05;;;-1.80;92.00;;;;;;4998823;28;20029;-66
2021/12/13 07:35:07;;;;;;;19.55;11.50;;;-1.70;91.90;;;;;;5000772;28;20057;-66
2021/12/13 07:37:47;;;;;;;19.20;11.50;;;-1.60;92.30;;;;;;5011453;28;20043;-66
2021/12/13 07:40:30;;;;;;;22.50;13.52;;;-1.50;92.30;;;;;;5001084;28;20031;-66
2021/12/13 07:43:13;;;;;;;29.20;15.15;;;-1.30;92.60;;;;;;5029375;28;20096;-66
2021/12/13 07:46:05;;;;;;;24.90;14.88;;;-1.20;92.80;;;;;;5000152;28;20026;-66
2021/12/13 07:48:36;;;;;;;30.73;17.77;;;-1.00;92.60;;;;;;5005772;28;20030;-66
2021/12/13 07:51:27;;;;;;;27.23;16.38;;;-0.80;92.30;;;;;;4998462;28;20061;-66
2021/12/13 07:53:58;;;;;;;25.83;14.65;;;-0.70;92.00;;;;;;4998964;28;20026;-66
2021/12/13 07:56:39;;;;;;;15.57;9.32;;;-0.50;91.80;;;;;;4999648;28;20114;-66
2021/12/13 07:59:14;;;;;;;90.13;41.33;;;-0.40;91.10;;;;;;5003117;28;20049;-66
2021/12/13 08:01:53;;;;;;;14.40;9.45;;;-0.50;91.70;;;;;;5001602;28;20160;-66
2021/12/13 08:04:23;;;;;;;14.70;8.70;;;-0.50;92.30;;;;;;5003246;28;20418;-66
2021/12/13 08:06:52;;;;;;;16.27;8.02;;;-0.50;92.60;;;;;;5005570;28;20096;-66
2021/12/13 08:09:22;;;;;;;162.50;68.30;;;-0.40;92.80;;;;;;5003972;28;20061;-66
2021/12/13 08:11:54;;;;;;;255.52;109.65;;;-0.40;92.60;;;;;;4998485;28;20042;-66
2021/12/13 08:14:33;;;;;;;41.35;21.30;;;-0.30;92.60;;;;;;5003827;28;20037;-66
2021/12/13 08:17:16;;;;;;;20.38;12.18;;;-0.10;92.90;;;;;;5000696;28;20817;-66
2021/12/13 08:19:43;;;;;;;26.90;15.20;;;0.20;93.10;;;;;;4995189;28;20085;-66
2021/12/13 08:22:15;;;;;;;25.92;13.85;;;0.40;93.00;;;;;;5001293;28;20049;-66
2021/12/13 08:24:49;;;;;;;49.80;27.27;;;0.70;93.00;;;;;;4994405;28;20579;-66
2021/12/13 08:27:28;;;;;;;38.40;24.77;;;1.00;92.70;;;;;;4997894;28;20029;-65
2021/12/13 08:30:25;;;;;;;40.90;25.80;;;1.20;92.50;;;;;;5001447;28;20034;-66
2021/12/13 08:33:09;;;;;;;48.75;28.35;;;1.50;92.00;;;;;;4996315;28;20061;-66
2021/12/13 08:35:59;;;;;;;49.20;27.17;;;1.60;91.70;;;;;;4990301;28;20640;-66
2021/12/13 08:38:26;;;;;;;88.40;48.20;;;1.80;91.80;;;;;;5002754;28;20722;-66
2021/12/13 08:40:52;;;;;;;78.93;44.78;;;1.90;91.40;;;;;;5001259;28;20053;-66
2021/12/13 08:43:40;;;;;;;35.03;22.83;;;1.90;91.00;;;;;;4996412;28;20023;-66
2021/12/13 08:46:07;;;;;;;46.13;27.48;;;1.70;91.40;;;;;;4995486;28;20049;-66
2021/12/13 08:48:50;;;;;;;47.92;30.40;;;1.70;91.50;;;;;;5000104;28;20041;-66
2021/12/13 08:51:24;;;;;;;47.13;31.15;;;1.70;91.40;;;;;;5000468;28;20109;-66
2021/12/13 08:54:06;;;;;;;46.90;31.13;;;1.80;91.20;;;;;;4995967;28;20412;-66
2021/12/13 08:56:40;;;;;;;43.08;27.35;;;1.80;91.20;;;;;;4994389;28;20083;-66
2021/12/13 08:59:16;;;;;;;40.85;26.80;;;1.90;91.20;;;;;;4995401;28;20499;-66
2021/12/13 09:01:53;;;;;;;42.25;27.27;;;1.90;91.10;;;;;;4997282;28;20022;-66
2021/12/13 09:04:31;;;;;;;43.45;26.25;;;1.90;91.10;;;;;;4993682;28;20037;-66
2021/12/13 09:07:01;;;;;;;45.05;27.98;;;2.00;91.30;;;;;;5000719;28;20026;-66
2021/12/13 09:09:28;;;;;;;44.22;27.08;;;2.00;91.20;;;;;;5000484;28;20084;-66
2021/12/13 09:12:08;;;;;;;48.30;29.13;;;2.00;91.30;;;;;;5001188;28;20026;-66
2021/12/13 09:14:39;;;;;;;50.28;29.50;;;2.00;91.40;;;;;;4995112;28;20029;-66
2021/12/13 09:17:21;;;;;;;53.38;31.33;;;2.10;91.70;;;;;;4993993;28;20037;-65
2021/12/13 09:19:56;;;;;;;48.17;30.05;;;2.10;91.90;;;;;;4999421;28;20029;-66
2021/12/13 09:22:50;;;;;;;55.22;33.17;;;2.10;92.00;;;;;;5000417;28;20045;-66
2021/12/13 09:25:20;;;;;;;45.13;29.52;;;2.20;92.00;;;;;;4994343;28;20054;-66
2021/12/13 09:28:15;;;;;;;42.88;27.27;;;2.20;92.40;;;;;;4999529;28;20030;-66
2021/12/13 09:30:58;;;;;;;29.83;19.30;;;2.20;92.20;;;;;;4999986;28;20025;-66
2021/12/13 09:33:28;;;;;;;25.50;16.42;;;2.30;92.40;;;;;;4996394;28;20048;-66
2021/12/13 09:36:26;;;;;;;17.55;11.98;;;2.30;92.50;;;;;;5001943;28;20077;-66
2021/12/13 09:38:58;;;;;;;13.30;9.88;;;2.40;92.40;;;;;;4992681;28;20077;-66
2021/12/13 09:41:42;;;;;;;14.40;9.07;;;2.40;92.40;;;;;;4993341;28;20133;-66
2021/12/13 09:44:08;;;;;;;13.15;7.90;;;2.50;92.50;;;;;;5002474;28;20057;-66
2021/12/13 09:47:06;;;;;;;11.18;7.15;;;2.50;92.20;;;;;;4998536;28;20111;-66
2021/12/13 09:49:40;;;;;;;11.20;7.10;;;2.50;92.20;;;;;;4995873;28;20078;-66
2021/12/13 09:52:06;;;;;;;10.05;6.82;;;2.50;92.30;;;;;;5002498;28;20095;-66
2021/12/13 09:54:49;;;;;;;10.15;6.55;;;2.50;92.00;;;;;;5000706;28;20030;-66
2021/12/13 09:57:20;;;;;;;11.43;8.00;;;2.60;92.10;;;;;;4998533;28;20511;-66
2021/12/13 09:59:51;;;;;;;15.70;10.73;;;2.60;91.90;;;;;;4998872;28;20026;-66
2021/12/13 10:02:22;;;;;;;18.30;9.68;;;2.60;91.80;;;;;;4994418;28;20424;-66
2021/12/13 10:04:49;;;;;;;24.02;14.50;;;2.60;91.90;;;;;;4999158;28;20545;-66
2021/12/13 10:07:30;;;;;;;23.20;14.77;;;2.50;91.90;;;;;;5001445;28;20455;-66
2021/12/13 10:10:06;;;;;;;26.83;16.38;;;2.60;92.00;;;;;;5000306;28;20046;-66
2021/12/13 10:12:46;;;;;;;24.50;15.88;;;2.70;92.00;;;;;;4992295;28;20073;-65
2021/12/13 10:15:26;;;;;;;24.50;16.23;;;2.80;92.00;;;;;;4996752;28;20022;-65
2021/12/13 10:17:56;;;;;;;26.77;17.00;;;2.90;91.90;;;;;;4996520;28;20026;-66
2021/12/13 10:20:28;;;;;;;25.33;16.30;;;3.00;91.90;;;;;;4994916;28;20152;-66
2021/12/13 10:22:55;;;;;;;23.98;17.02;;;3.10;91.90;;;;;;4996771;28;20034;-65
2021/12/13 10:25:23;;;;;;;23.60;15.77;;;3.20;92.00;;;;;;5000405;28;20029;-66
2021/12/13 10:27:49;;;;;;;26.38;14.60;;;3.30;91.80;;;;;;4998423;28;20038;-65
2021/12/13 10:30:27;;;;;;;18.42;11.90;;;3.40;91.70;;;;;;4997975;28;20093;-66
2021/12/13 10:32:53;;;;;;;13.43;9.18;;;3.40;91.70;;;;;;4995666;28;20049;-66
2021/12/13 10:35:30;;;;;;;10.50;6.85;;;3.50;91.60;;;;;;4998066;28;20080;-66
2021/12/13 10:38:02;;;;;;;7.93;6.07;;;3.50;91.40;;;;;;4997705;28;20045;-65
2021/12/13 10:40:38;;;;;;;;;;;3.60;91.50;;;;;;4999244;28;20480;-66
2021/12/13 10:43:09;;;;;;;8.98;6.13;;;3.70;91.10;;;;;;4999834;28;19923;-65
2021/12/13 10:45:42;;;;;;;10.43;6.18;;;3.80;91.10;;;;;;5005067;28;20038;-66
2021/12/13 10:48:11;;;;;;;7.80;5.55;;;3.80;91.00;;;;;;4996402;28;20073;-65
2021/12/13 10:50:48;;;;;;;9.80;5.47;;;3.90;91.20;;;;;;5000202;28;20575;-66
2021/12/13 10:53:16;;;;;;;8.57;5.80;;;3.90;91.00;;;;;;4998931;28;20038;-66
2021/12/13 10:55:47;;;;;;;8.00;5.88;;;3.70;90.90;;;;;;4995621;28;20037;-66
2021/12/13 10:58:20;;;;;;;8.77;6.00;;;3.70;91.20;;;;;;4994664;28;20026;-66
2021/12/13 11:00:59;;;;;;;10.15;6.63;;;3.80;91.30;;;;;;4995561;28;20215;-66
2021/12/13 11:03:29;;;;;;;10.55;7.50;;;3.80;91.10;;;;;;4989806;28;20115;-66
2021/12/13 11:05:56;;;;;;;12.82;8.23;;;3.90;91.20;;;;;;4999661;28;20026;-66
2021/12/13 11:08:24;;;;;;;11.90;7.15;;;3.90;90.80;;;;;;4996664;28;20520;-66
2021/12/13 11:11:03;;;;;;;12.15;8.02;;;4.00;91.00;;;;;;4996649;28;20038;-65
2021/12/13 11:13:32;;;;;;;11.98;8.00;;;4.10;90.90;;;;;;4995418;28;20044;-66
2021/12/13 11:16:14;;;;;;;11.60;7.75;;;4.10;90.90;;;;;;5003080;28;20542;-65
2021/12/13 11:18:40;;;;;;;12.13;8.75;;;4.10;91.20;;;;;;4999812;28;20088;-65
2021/12/13 11:21:15;;;;;;;15.13;9.25;;;4.20;90.90;;;;;;5001287;28;20788;-65
2021/12/13 11:23:41;;;;;;;15.32;10.50;;;4.30;91.10;;;;;;4998887;28;20034;-65
2021/12/13 11:26:12;;;;;;;15.15;10.38;;;4.30;91.00;;;;;;5002340;28;20017;-65
2021/12/13 11:28:40;;;;;;;19.30;13.77;;;4.40;91.00;;;;;;5016174;28;20091;-65
2021/12/13 11:31:28;;;;;;;17.80;11.80;;;4.50;91.20;;;;;;4997559;28;20030;-65
2021/12/13 11:34:04;;;;;;;16.25;11.02;;;4.70;91.30;;;;;;4995467;28;20511;-66
2021/12/13 11:37:11;;;;;;;18.25;13.18;;;4.70;91.20;;;;;;4998251;28;20073;-67
2021/12/13 11:39:58;;;;;;;19.77;12.85;;;4.80;91.40;;;;;;5003105;28;20125;-66
2021/12/13 11:42:51;;;;;;;15.95;11.82;;;4.90;91.40;;;;;;5001422;28;20054;-67
2021/12/13 11:45:38;;;;;;;17.20;12.10;;;4.90;91.20;;;;;;4999305;28;20042;-66
2021/12/13 11:48:35;;;;;;;18.95;12.57;;;5.00;91.20;;;;;;4995549;28;20029;-67
2021/12/13 11:51:32;;;;;;;14.68;10.98;;;5.00;91.20;;;;;;4998168;28;20121;-66
2021/12/13 11:54:13;;;;;;;17.45;11.95;;;5.10;91.20;;;;;;4998761;28;20131;-66
2021/12/13 11:57:06;;;;;;;19.00;12.23;;;5.10;91.10;;;;;;4997039;28;20076;-67
2021/12/13 12:00:05;;;;;;;16.55;11.85;;;5.20;90.90;;;;;;5001187;28;20037;-66
2021/12/13 12:03:29;;;;;;;31.95;20.38;;;5.30;91.00;;;;;;5003811;28;20427;-66
2021/12/13 12:06:18;;;;;;;22.50;15.70;;;5.30;90.90;;;;;;4999908;28;20049;-66
2021/12/13 12:09:11;;;;;;;20.70;13.27;;;5.40;90.80;;;;;;5001618;28;20101;-66
2021/12/13 12:11:59;;;;;;;21.90;14.93;;;5.50;90.70;;;;;;5001632;28;20028;-66
2021/12/13 12:14:28;;;;;;;19.77;12.70;;;5.60;90.70;;;;;;5003028;28;20022;-66
2021/12/13 12:16:57;;;;;;;17.27;11.80;;;5.60;90.40;;;;;;4998904;28;20025;-66
2021/12/13 12:19:29;;;;;;;17.65;12.50;;;5.60;90.20;;;;;;5004452;28;20115;-66
2021/12/13 12:22:07;;;;;;;18.75;13.05;;;5.70;90.10;;;;;;5004295;28;20029;-67
2021/12/13 12:24:39;;;;;;;16.27;10.80;;;5.70;89.80;;;;;;5004364;28;20044;-66
2021/12/13 12:27:08;;;;;;;14.88;10.82;;;5.80;89.80;;;;;;5004608;28;20917;-66
2021/12/13 12:29:38;;;;;;;19.90;12.73;;;5.80;89.60;;;;;;5005126;28;20093;-66
2021/12/13 12:32:15;;;;;;;17.88;11.77;;;5.80;89.40;;;;;;5000297;28;20033;-66
2021/12/13 12:34:58;;;;;;;17.65;11.48;;;5.80;89.20;;;;;;5007305;28;20030;-67
2021/12/13 12:37:54;;;;;;;18.08;12.32;;;5.90;89.50;;;;;;5004283;28;20381;-66
2021/12/13 12:40:35;;;;;;;16.02;10.88;;;6.00;89.20;;;;;;5000991;28;20404;-66
2021/12/13 12:43:07;;;;;;;13.07;9.73;;;6.10;89.00;;;;;;4998274;28;20584;-66
2021/12/13 12:45:41;;;;;;;14.40;9.23;;;6.10;88.70;;;;;;5005513;28;20484;-66
2021/12/13 12:48:18;;;;;;;14.52;9.43;;;6.10;88.30;;;;;;5004646;28;20081;-66
2021/12/13 12:50:54;;;;;;;12.57;9.25;;;6.20;87.60;;;;;;4999439;28;20044;-66
2021/12/13 12:53:40;;;;;;;28.42;20.98;;;6.20;87.10;;;;;;5001018;28;20115;-66
2021/12/13 12:56:15;;;;;;;16.40;11.80;;;6.20;86.70;;;;;;5003869;28;20045;-65
2021/12/13 12:58:52;;;;;;;12.95;9.65;;;6.30;86.60;;;;;;5004836;28;20096;-65
2021/12/13 13:01:34;;;;;;;10.95;8.38;;;6.40;86.70;;;;;;5031346;28;20379;-65
2021/12/13 13:04:08;;;;;;;12.55;8.65;;;6.40;85.60;;;;;;4999909;28;20080;-66
2021/12/13 13:06:34;;;;;;;12.63;8.95;;;6.40;86.10;;;;;;5005976;28;20030;-66
2021/12/13 13:09:09;;;;;;;12.55;8.70;;;6.50;85.70;;;;;;5001889;28;20042;-66
2021/12/13 13:11:37;;;;;;;12.70;8.93;;;6.50;85.30;;;;;;5003560;28;20481;-66
2021/12/13 13:14:18;;;;;;;17.33;12.05;;;6.60;85.20;;;;;;5000310;28;20068;-66
2021/12/13 13:16:52;;;;;;;19.20;14.50;;;6.70;84.60;;;;;;4999135;28;20104;-65
2021/12/13 13:19:32;;;;;;;24.55;19.65;;;6.70;84.80;;;;;;5005610;28;20117;-65
2021/12/13 13:22:07;;;;;;;15.90;10.63;;;6.70;84.30;;;;;;4997780;28;20053;-65
2021/12/13 13:24:39;;;;;;;16.45;11.73;;;6.80;84.20;;;;;;5003895;28;20029;-66
2021/12/13 13:27:05;;;;;;;12.43;9.48;;;6.90;84.00;;;;;;5000650;28;20022;-65
2021/12/13 13:29:33;;;;;;;39.92;35.25;;;7.10;83.20;;;;;;4999996;28;20097;-66
2021/12/13 13:32:00;;;;;;;19.08;13.80;;;7.30;82.00;;;;;;5006808;28;20120;-67
2021/12/13 13:34:38;;;;;;;26.25;20.45;;;7.60;80.70;;;;;;4997490;28;20030;-65